createdAt,value
2023-03-11T00:00:47.326Z,85.07
2023-03-11T00:03:16.346Z,84.90
2023-03-11T00:05:45.730Z,85.21
2023-03-11T00:08:18.138Z,84.66
2023-03-11T00:10:47.162Z,84.49
2023-03-11T00:13:16.500Z,84.48
2023-03-11T00:15:47.189Z,84.39
2023-03-11T00:18:14.271Z,84.52
2023-03-11T00:20:45.476Z,84.35
2023-03-11T00:23:14.000Z,84.27
2023-03-11T00:25:43.633Z,84.46
2023-03-11T00:28:12.387Z,84.11
2023-03-11T00:30:41.059Z,84.00
2023-03-11T00:33:09.176Z,84.08
2023-03-11T00:35:36.568Z,84.10
2023-03-11T00:38:07.253Z,84.03
2023-03-11T00:40:35.950Z,84.04
2023-03-11T00:43:04.090Z,83.69
2023-03-11T00:45:31.889Z,83.76
2023-03-11T00:47:59.048Z,83.81
2023-03-11T00:50:30.901Z,83.76
2023-03-11T00:52:58.612Z,83.67
2023-03-11T00:55:32.601Z,83.61
2023-03-11T00:58:02.645Z,83.31
2023-03-11T01:00:30.966Z,83.47
2023-03-11T01:02:59.737Z,83.14
2023-03-11T01:05:31.031Z,83.01
2023-03-11T01:07:58.313Z,82.97
2023-03-11T01:10:26.005Z,82.80
2023-03-11T01:12:53.828Z,82.70
2023-03-11T01:15:29.451Z,82.64
2023-03-11T01:17:56.478Z,82.39
2023-03-11T01:20:23.921Z,82.26
2023-03-11T01:22:51.075Z,81.90
2023-03-11T01:25:21.261Z,82.14
2023-03-11T01:27:48.269Z,81.95
2023-03-11T01:30:22.290Z,81.75
2023-03-11T01:32:50.066Z,81.80
2023-03-11T01:35:19.445Z,81.65
2023-03-11T01:37:46.911Z,81.75
2023-03-11T01:40:48.334Z,81.64
2023-03-11T01:43:43.350Z,81.64
2023-03-11T01:46:15.189Z,81.88
2023-03-11T01:49:05.709Z,81.68
2023-03-11T01:51:40.806Z,81.82
2023-03-11T01:54:16.995Z,81.63
2023-03-11T01:56:45.584Z,81.36
2023-03-11T01:59:16.616Z,81.05
2023-03-11T02:01:59.508Z,81.08
2023-03-11T02:04:28.725Z,80.85
2023-03-11T02:06:59.171Z,80.92
2023-03-11T02:09:27.167Z,80.85
2023-03-11T02:11:54.595Z,80.65
2023-03-11T02:14:21.917Z,80.67
2023-03-11T02:16:48.888Z,80.37
2023-03-11T02:19:47.244Z,80.18
2023-03-11T02:22:14.569Z,80.02
2023-03-11T02:25:02.062Z,79.98
2023-03-11T02:27:32.044Z,79.89
2023-03-11T02:30:00.196Z,79.89
2023-03-11T02:32:27.532Z,79.57
2023-03-11T02:34:54.605Z,79.40
2023-03-11T02:37:21.650Z,79.37
2023-03-11T02:39:54.895Z,79.55
2023-03-11T02:42:32.410Z,79.42
2023-03-11T02:45:07.933Z,79.00
2023-03-11T02:47:36.041Z,78.94
2023-03-11T02:50:03.125Z,78.73
2023-03-11T02:52:34.055Z,78.93
2023-03-11T02:55:01.302Z,78.81
2023-03-11T02:57:28.358Z,78.68
2023-03-11T02:59:55.421Z,78.43
2023-03-11T03:02:22.492Z,78.46
2023-03-11T03:04:49.478Z,78.18
2023-03-11T03:07:16.569Z,78.27
2023-03-11T03:09:43.551Z,77.94
2023-03-11T03:12:10.822Z,78.11
2023-03-11T03:14:38.396Z,77.84
2023-03-11T03:17:05.502Z,77.89
2023-03-11T03:19:32.536Z,78.02
2023-03-11T03:21:59.489Z,78.00
2023-03-11T03:24:26.480Z,77.97
2023-03-11T03:26:53.508Z,77.90
2023-03-11T03:29:20.519Z,78.11
2023-03-11T03:31:47.652Z,78.20
2023-03-11T03:34:14.753Z,78.46
2023-03-11T03:36:42.341Z,78.59
2023-03-11T03:39:09.307Z,78.64
2023-03-11T03:41:36.366Z,78.77
2023-03-11T03:44:03.753Z,78.74
2023-03-11T03:46:30.730Z,79.10
2023-03-11T03:48:57.704Z,79.02
2023-03-11T03:51:24.848Z,79.10
2023-03-11T03:53:51.835Z,79.21
2023-03-11T03:56:19.641Z,78.64
2023-03-11T03:58:46.631Z,78.58
2023-03-11T04:01:13.816Z,78.57
2023-03-11T04:03:41.315Z,78.65
2023-03-11T04:06:27.246Z,78.44
2023-03-11T04:08:55.070Z,78.61
2023-03-11T04:11:22.386Z,78.56
2023-03-11T04:13:49.891Z,78.60
2023-03-11T04:16:20.360Z,78.42
2023-03-11T04:18:47.788Z,78.88
2023-03-11T04:21:14.968Z,78.85
2023-03-11T04:23:42.929Z,78.64
2023-03-11T04:26:10.088Z,78.81
2023-03-11T04:28:37.381Z,79.08
2023-03-11T04:31:05.023Z,78.83
2023-03-11T04:33:32.466Z,79.15
2023-03-11T04:35:59.815Z,79.00
2023-03-11T04:38:26.916Z,79.11
2023-03-11T04:40:53.897Z,79.06
2023-03-11T04:43:21.020Z,79.40
2023-03-11T06:03:20.193Z,80.75
2023-03-11T06:05:48.296Z,80.99
2023-03-11T06:08:15.851Z,80.84
2023-03-11T06:10:44.289Z,81.04
2023-03-11T06:13:13.279Z,81.07
2023-03-11T06:15:40.257Z,81.15
2023-03-11T06:18:07.228Z,80.89
2023-03-11T06:20:34.225Z,81.21
2023-03-11T06:23:01.229Z,81.31
2023-03-11T06:25:28.269Z,81.35
2023-03-11T06:27:55.277Z,81.37
2023-03-11T06:30:23.689Z,81.26
2023-03-11T06:32:50.814Z,81.41
2023-03-11T06:35:17.961Z,81.13
2023-03-11T06:37:45.098Z,81.15
2023-03-11T06:40:16.108Z,81.38
2023-03-11T06:42:47.692Z,81.45
2023-03-11T06:45:14.725Z,81.25
2023-03-11T06:47:44.096Z,81.53
2023-03-11T06:50:13.811Z,81.42
2023-03-11T06:52:40.787Z,81.64
2023-03-11T06:55:08.460Z,81.31
2023-03-11T06:57:35.505Z,81.51
2023-03-11T07:00:03.043Z,81.52
2023-03-11T07:02:30.121Z,81.60
2023-03-11T07:04:57.158Z,81.28
2023-03-11T07:07:24.232Z,81.61
2023-03-11T07:09:51.298Z,81.44
2023-03-11T07:12:18.304Z,81.70
2023-03-11T07:14:45.399Z,81.69
2023-03-11T07:17:13.331Z,81.83
2023-03-11T07:19:42.583Z,81.66
2023-03-11T07:22:09.581Z,81.71
2023-03-11T07:24:36.557Z,81.77
2023-03-11T07:27:03.618Z,81.72
2023-03-11T07:29:30.617Z,81.55
2023-03-11T07:31:57.646Z,81.88
2023-03-11T07:34:24.701Z,81.67
2023-03-11T07:36:51.687Z,81.82
2023-03-11T07:39:19.254Z,81.88
2023-03-11T07:41:47.117Z,81.81
2023-03-11T07:44:15.827Z,81.78
2023-03-11T07:46:44.436Z,81.68
2023-03-11T07:49:12.293Z,81.78
2023-03-11T07:51:46.116Z,81.69
2023-03-11T07:54:13.833Z,81.59
2023-03-11T07:56:44.481Z,81.56
2023-03-11T07:59:11.942Z,81.41
2023-03-11T08:01:41.770Z,81.35
2023-03-11T08:04:14.579Z,81.23
2023-03-11T08:06:44.490Z,81.00
2023-03-11T08:09:13.640Z,81.01
2023-03-11T08:11:40.940Z,80.68
2023-03-11T08:14:08.104Z,80.55
2023-03-11T08:16:35.467Z,80.31
2023-03-11T08:19:02.731Z,80.23
2023-03-11T08:21:32.454Z,80.08
2023-03-11T08:24:01.639Z,79.69
2023-03-11T08:26:29.395Z,79.72
2023-03-11T08:28:57.737Z,79.34
2023-03-11T08:31:29.143Z,79.18
2023-03-11T08:34:04.055Z,78.93
2023-03-11T08:36:32.213Z,78.73
2023-03-11T08:39:00.186Z,78.30
2023-03-11T08:41:28.136Z,78.07
2023-03-11T08:43:55.590Z,77.94
2023-03-11T08:46:35.629Z,77.84
2023-03-11T08:49:04.369Z,77.57
2023-03-11T08:51:33.246Z,77.03
2023-03-11T08:54:01.935Z,76.88
2023-03-11T08:56:29.297Z,76.71
2023-03-11T08:58:56.304Z,76.46
2023-03-11T09:01:23.828Z,76.12
2023-03-11T09:03:50.978Z,76.09
2023-03-11T09:06:18.536Z,75.90
2023-03-11T09:08:46.862Z,75.47
2023-03-11T09:11:18.538Z,75.44
2023-03-11T09:13:45.590Z,75.24
2023-03-11T09:16:18.852Z,74.94
2023-03-11T09:18:45.979Z,75.21
2023-03-11T09:21:13.903Z,74.86
2023-03-11T09:23:44.157Z,74.85
2023-03-11T09:26:14.370Z,74.60
2023-03-11T09:28:42.052Z,74.72
2023-03-11T09:31:09.653Z,74.66
2023-03-11T09:33:44.736Z,74.75
2023-03-11T09:36:17.564Z,74.27
2023-03-11T09:38:45.029Z,73.79
2023-03-11T09:41:55.411Z,73.35
2023-03-11T09:44:44.247Z,73.31
2023-03-11T09:47:26.346Z,73.29
2023-03-11T09:49:58.914Z,73.47
2023-03-11T09:52:51.961Z,73.20
2023-03-11T09:55:37.433Z,73.09
2023-03-11T09:58:36.047Z,72.83
2023-03-11T10:01:10.748Z,72.73
2023-03-11T10:03:39.879Z,72.83
2023-03-11T10:06:14.567Z,72.88
2023-03-11T10:08:48.155Z,72.11
2023-03-11T10:11:49.085Z,71.87
2023-03-11T10:14:57.484Z,71.67
2023-03-11T10:17:39.365Z,71.77
2023-03-11T10:20:24.954Z,71.80
2023-03-11T10:23:25.184Z,71.43
2023-03-11T10:26:19.976Z,71.33
2023-03-11T10:28:56.318Z,70.91
2023-03-11T10:31:32.246Z,70.89
2023-03-11T10:34:39.729Z,70.32
2023-03-11T10:37:17.308Z,70.06
2023-03-11T10:39:48.208Z,69.87
2023-03-11T10:42:25.347Z,69.83
2023-03-11T10:44:52.723Z,69.77
2023-03-11T10:47:24.306Z,69.63
2023-03-11T10:49:52.686Z,69.54
2023-03-11T10:52:20.505Z,69.54
2023-03-11T10:54:59.123Z,69.34
2023-03-11T10:57:34.524Z,69.12
2023-03-11T11:00:17.515Z,69.14
2023-03-11T11:02:58.321Z,68.87
2023-03-11T11:05:34.388Z,68.34
2023-03-11T11:08:15.614Z,67.79
2023-03-11T11:10:58.362Z,68.06
2023-03-11T11:13:31.318Z,67.94
2023-03-11T11:16:06.602Z,67.52
2023-03-11T11:19:00.108Z,67.60
2023-03-11T11:21:48.910Z,67.29
2023-03-11T11:24:29.020Z,67.49
2023-03-11T11:27:25.931Z,67.17
2023-03-11T11:30:08.911Z,66.69
2023-03-11T11:32:37.492Z,66.11
2023-03-11T11:35:08.194Z,65.91
2023-03-11T11:37:48.478Z,65.71
2023-03-11T11:40:15.874Z,65.73
2023-03-11T11:43:03.923Z,65.56
2023-03-11T11:45:41.571Z,65.64
2023-03-11T11:48:33.884Z,65.09
2023-03-11T11:51:03.098Z,65.13
2023-03-11T11:54:18.888Z,64.36
2023-03-11T11:56:46.499Z,64.63
2023-03-11T11:59:24.672Z,64.28
2023-03-11T12:02:16.408Z,64.24
2023-03-11T12:05:14.259Z,64.50
2023-03-11T12:08:21.060Z,64.18
2023-03-11T12:11:10.504Z,64.16
2023-03-11T12:14:11.545Z,64.32
2023-03-11T12:17:03.780Z,64.16
2023-03-11T12:20:04.116Z,63.87
2023-03-11T12:23:00.424Z,63.74
2023-03-11T12:26:03.525Z,63.69
2023-03-11T12:29:07.289Z,62.97
2023-03-11T12:31:39.523Z,63.06
2023-03-11T12:34:15.233Z,62.48
2023-03-11T12:36:44.763Z,62.50
2023-03-11T12:39:25.248Z,62.23
2023-03-11T12:42:11.252Z,61.84
2023-03-11T12:44:39.877Z,61.64
2023-03-11T12:47:25.906Z,61.31
2023-03-11T12:50:16.694Z,61.33
2023-03-11T12:52:54.869Z,60.65
2023-03-11T12:55:31.358Z,60.19
2023-03-11T12:58:16.568Z,59.92
2023-03-11T13:01:21.787Z,60.01
2023-03-11T13:04:31.090Z,60.05
2023-03-11T13:07:45.870Z,59.57
2023-03-11T13:10:36.053Z,59.91
2023-03-11T13:13:22.041Z,59.85
2023-03-11T13:15:49.443Z,59.73
2023-03-11T13:18:34.902Z,58.95
2023-03-11T13:21:03.378Z,58.54
2023-03-11T13:23:36.913Z,58.65
2023-03-11T13:26:35.370Z,58.41
2023-03-11T13:29:34.942Z,57.84
2023-03-11T13:32:12.169Z,57.74
2023-03-11T13:34:44.786Z,57.63
2023-03-11T13:37:40.787Z,57.22
2023-03-11T13:40:23.149Z,57.01
2023-03-11T13:43:02.847Z,56.79
2023-03-11T13:45:36.590Z,56.83
2023-03-11T13:48:15.816Z,56.71
2023-03-11T13:50:51.607Z,56.64
2023-03-11T13:53:25.858Z,56.22
2023-03-11T13:55:53.225Z,56.37
2023-03-11T13:58:28.899Z,55.69
2023-03-11T14:00:59.940Z,55.55
2023-03-11T14:03:29.622Z,55.07
2023-03-11T14:06:01.607Z,54.98
2023-03-11T14:08:34.932Z,55.08
2023-03-11T14:11:02.650Z,55.70
2023-03-11T14:13:31.200Z,55.62
2023-03-11T14:16:02.413Z,55.52
2023-03-11T14:18:40.630Z,55.90
2023-03-11T14:21:15.847Z,55.88
2023-03-11T14:23:54.050Z,56.10
2023-03-11T14:26:26.669Z,56.34
2023-03-11T14:28:55.536Z,56.13
2023-03-11T14:31:34.057Z,56.45
2023-03-11T14:34:21.953Z,56.31
2023-03-11T14:36:57.259Z,56.59
2023-03-11T14:39:24.126Z,56.94
2023-03-11T14:41:51.849Z,56.90
2023-03-11T14:44:18.732Z,57.13
2023-03-11T14:46:45.635Z,57.30
2023-03-11T14:49:21.090Z,57.62
2023-03-11T14:51:58.564Z,57.41
2023-03-11T14:54:27.076Z,57.46
2023-03-11T14:57:18.959Z,57.59
2023-03-11T14:59:47.021Z,57.86
2023-03-11T15:02:40.218Z,57.80
2023-03-11T15:05:20.797Z,57.83
2023-03-11T15:07:48.347Z,57.78
2023-03-11T15:10:15.330Z,57.42
2023-03-11T15:12:43.936Z,57.36
2023-03-11T15:15:29.551Z,57.42
2023-03-11T15:18:00.631Z,57.28
2023-03-11T15:20:31.174Z,57.52
2023-03-11T15:23:03.365Z,57.56
2023-03-11T15:25:36.236Z,57.11
2023-03-11T15:28:29.198Z,56.95
2023-03-11T15:31:15.287Z,57.26
2023-03-11T15:33:43.134Z,57.33
2023-03-11T15:36:29.894Z,57.48
2023-03-11T15:39:13.999Z,57.32
2023-03-11T15:41:42.208Z,57.03
2023-03-11T15:44:25.680Z,57.11
2023-03-11T15:46:53.246Z,56.97
2023-03-11T15:49:20.258Z,56.77
2023-03-11T15:51:47.201Z,56.39
2023-03-11T15:54:14.097Z,56.33
2023-03-11T15:56:42.983Z,56.19
2023-03-11T15:59:17.017Z,56.29
2023-03-11T16:01:44.282Z,56.41
2023-03-11T16:04:16.306Z,56.00
2023-03-11T16:06:43.532Z,56.04
2023-03-11T16:09:13.557Z,55.77
2023-03-11T16:11:40.785Z,55.80
2023-03-11T16:14:16.518Z,55.58
2023-03-11T16:16:44.587Z,56.01
2023-03-11T16:19:12.184Z,55.85
2023-03-11T16:21:49.416Z,55.92
2023-03-11T16:24:22.387Z,56.03
2023-03-11T16:26:51.626Z,56.31
2023-03-11T16:29:19.975Z,56.50
2023-03-11T16:31:47.248Z,56.67
2023-03-11T16:34:14.179Z,56.90
2023-03-11T16:36:41.317Z,57.14
2023-03-11T16:39:08.501Z,57.50
2023-03-11T16:41:43.734Z,57.49
2023-03-11T16:44:11.013Z,57.82
2023-03-11T16:46:38.465Z,58.17
2023-03-11T16:49:05.636Z,58.12
2023-03-11T16:51:32.877Z,58.51
2023-03-11T16:53:59.858Z,59.38
2023-03-11T16:56:26.967Z,59.76
2023-03-11T16:58:53.946Z,60.47
2023-03-11T17:01:21.805Z,60.39
2023-03-11T17:03:50.900Z,61.05
2023-03-11T17:06:18.454Z,61.57
2023-03-11T17:08:49.062Z,62.06
2023-03-11T17:11:20.872Z,62.44
2023-03-11T17:13:47.831Z,62.66
2023-03-11T17:16:14.850Z,62.72
2023-03-11T17:18:42.070Z,63.07
2023-03-11T17:21:10.773Z,63.27
2023-03-11T17:23:37.762Z,63.81
2023-03-11T17:26:09.696Z,64.32
2023-03-11T17:28:37.208Z,64.46
2023-03-11T17:31:06.653Z,64.75
2023-03-11T17:33:33.907Z,64.75
2023-03-11T17:36:05.943Z,65.02
2023-03-11T17:38:33.193Z,65.36
2023-03-11T17:41:00.286Z,65.61
2023-03-11T17:43:27.291Z,65.81
2023-03-11T17:45:54.337Z,65.86
2023-03-11T17:48:21.405Z,66.12
2023-03-11T17:50:48.473Z,66.27
2023-03-11T17:53:15.451Z,66.46
2023-03-11T17:55:42.960Z,66.44
2023-03-11T17:58:10.021Z,66.50
2023-03-11T18:00:37.513Z,67.04
2023-03-11T18:03:04.479Z,66.89
2023-03-11T18:05:31.462Z,67.12
2023-03-11T18:07:58.842Z,67.38
2023-03-11T18:10:25.859Z,67.50
2023-03-11T18:12:52.882Z,67.36
2023-03-11T18:15:20.006Z,67.63
2023-03-11T18:17:47.634Z,67.91
2023-03-11T18:20:16.197Z,67.92
2023-03-11T18:22:46.659Z,67.80
2023-03-11T18:25:14.057Z,68.13
2023-03-11T18:27:41.105Z,67.88
2023-03-11T18:30:11.497Z,67.94
2023-03-11T18:32:38.554Z,68.16
2023-03-11T18:35:06.034Z,68.30
2023-03-11T18:37:33.621Z,68.11
2023-03-11T18:40:00.620Z,68.34
2023-03-11T18:42:27.581Z,68.41
2023-03-11T18:44:54.483Z,68.55
2023-03-11T18:47:21.375Z,68.35
2023-03-11T18:49:48.309Z,68.39
2023-03-11T18:52:15.228Z,68.44
2023-03-11T18:54:43.181Z,68.65
2023-03-11T18:57:10.111Z,68.85
2023-03-11T18:59:37.010Z,69.18
2023-03-11T19:02:03.968Z,69.34
2023-03-11T19:04:30.979Z,69.50
2023-03-11T19:06:57.925Z,69.40
2023-03-11T19:09:24.853Z,69.73
2023-03-11T19:11:51.773Z,69.86
2023-03-11T19:14:18.697Z,69.70
2023-03-11T19:16:45.689Z,69.67
2023-03-11T19:19:13.325Z,69.80
2023-03-11T19:21:40.328Z,69.82
2023-03-11T19:24:07.386Z,69.96
2023-03-11T19:26:44.648Z,70.14
2023-03-11T19:29:15.590Z,70.43
2023-03-11T19:31:43.973Z,70.40
2023-03-11T19:34:13.576Z,70.33
2023-03-11T19:36:40.643Z,70.48
2023-03-11T19:39:07.879Z,70.46
2023-03-11T19:41:35.018Z,70.56
2023-03-11T19:44:04.226Z,70.78
2023-03-11T19:46:34.688Z,70.67
2023-03-11T19:49:02.427Z,71.10
2023-03-11T19:51:38.873Z,71.00
2023-03-11T19:54:16.201Z,71.19
2023-03-11T19:56:43.824Z,71.16
2023-03-11T19:59:10.810Z,71.39
2023-03-11T20:01:37.886Z,71.38
2023-03-11T20:04:05.029Z,71.40
2023-03-11T20:06:32.136Z,71.41
2023-03-11T20:08:59.126Z,71.69
2023-03-11T20:11:27.139Z,71.44
2023-03-11T20:13:54.289Z,71.51
2023-03-11T20:16:21.300Z,71.65
2023-03-11T20:18:49.693Z,71.81
2023-03-11T20:21:16.727Z,71.89
2023-03-11T20:23:43.766Z,71.80
2023-03-11T20:26:13.683Z,71.90
2023-03-11T20:28:40.666Z,72.15
2023-03-11T20:31:19.799Z,71.97
2023-03-11T20:33:48.191Z,72.28
2023-03-11T20:36:17.568Z,72.27
2023-03-11T20:38:44.601Z,72.15
2023-03-11T20:41:11.806Z,72.32
2023-03-11T20:43:39.789Z,72.35
2023-03-11T20:46:09.023Z,72.24
2023-03-11T20:48:37.125Z,72.33
2023-03-11T20:51:07.449Z,72.51
2023-03-11T20:53:34.862Z,72.43
2023-03-11T20:56:08.751Z,72.59
2023-03-11T20:58:36.251Z,72.80
2023-03-11T21:01:15.536Z,72.54
2023-03-11T21:03:43.826Z,72.54
2023-03-11T21:06:22.947Z,72.77
2023-03-11T21:08:50.048Z,72.59
2023-03-11T21:11:17.521Z,72.73
2023-03-11T21:13:44.520Z,72.72
2023-03-11T21:16:11.804Z,72.82
2023-03-11T21:18:39.050Z,72.93
2023-03-11T21:21:08.503Z,72.83
2023-03-11T21:23:36.013Z,72.96
2023-03-11T21:26:04.511Z,72.66
2023-03-11T21:28:31.718Z,72.92
2023-03-11T21:31:03.747Z,72.74
2023-03-11T21:33:30.864Z,72.62
2023-03-11T21:35:59.397Z,72.97
2023-03-11T21:38:26.810Z,73.14
2023-03-11T21:40:54.217Z,72.92
2023-03-11T21:43:24.022Z,73.00
2023-03-11T21:45:52.931Z,73.22
2023-03-11T21:48:21.036Z,73.20
2023-03-11T21:50:48.714Z,73.34
2023-03-11T21:53:16.011Z,73.17
2023-03-11T21:55:43.578Z,73.28
2023-03-11T21:58:10.535Z,73.38
2023-03-11T22:00:37.675Z,73.46
2023-03-11T22:03:04.809Z,73.29
2023-03-11T22:05:31.960Z,73.24
2023-03-11T22:07:58.900Z,73.67
2023-03-11T22:10:25.949Z,73.39
2023-03-11T22:12:52.894Z,73.58
2023-03-11T22:15:19.929Z,73.58
2023-03-11T22:17:47.005Z,73.76
2023-03-11T22:20:14.252Z,73.92
2023-03-11T22:22:42.681Z,73.65
2023-03-11T22:25:09.955Z,73.73
2023-03-11T22:27:38.532Z,73.90
2023-03-11T22:30:06.261Z,73.70
2023-03-11T22:32:33.432Z,73.80
2023-03-11T22:35:00.484Z,73.83
2023-03-11T22:37:28.034Z,73.79
2023-03-11T22:39:55.133Z,73.83
2023-03-11T22:42:22.106Z,73.84
2023-03-11T22:44:49.177Z,74.08
2023-03-11T22:47:16.199Z,73.89
2023-03-11T22:49:46.238Z,73.88
2023-03-11T22:52:14.000Z,73.91
2023-03-11T22:54:40.976Z,74.08
2023-03-11T22:57:07.918Z,74.40
2023-03-11T22:59:34.826Z,74.23
2023-03-11T23:02:01.756Z,74.31
2023-03-11T23:04:28.864Z,74.31
2023-03-11T23:06:55.788Z,74.02
2023-03-11T23:09:23.020Z,74.09
2023-03-11T23:11:50.550Z,74.11
2023-03-11T23:14:17.531Z,74.13
2023-03-11T23:16:45.424Z,73.89
2023-03-11T23:19:13.632Z,74.14
2023-03-11T23:21:40.588Z,74.18
2023-03-11T23:24:10.230Z,73.98
2023-03-11T23:26:37.718Z,74.07
2023-03-11T23:29:04.771Z,74.25
2023-03-11T23:31:31.759Z,74.34
2023-03-11T23:33:58.870Z,74.09
2023-03-11T23:36:30.440Z,74.15
2023-03-11T23:38:58.347Z,74.23
2023-03-11T23:41:25.278Z,74.31
2023-03-11T23:43:52.557Z,74.46
2023-03-11T23:46:19.564Z,74.37
2023-03-11T23:48:46.610Z,74.29
2023-03-11T23:51:13.723Z,74.39
2023-03-11T23:53:40.758Z,74.17
2023-03-11T23:56:13.448Z,74.28
2023-03-11T23:58:40.667Z,74.34
